Ana Sayfa
METAR-TAF:

METAR-TAF

Havaalanları :

Wichita, Kansas, Amerika Birleşik Devletleri

Enlem: 37-38-50N, Boylam: 097-25-46W, yükseklik: 406 m

Güncel hava durumu gözlemi

Rapor saat 06:53 UTC de 42 dakika önce yapıldı.
Rüzgar kuzeydan 11 kt
Sıcaklık 20°C
Nem 64%
Basınç 1011 hPa
Görüş mesafesi: 16.1 km
Açık gökyüzü

METAR: KICT 270653Z 35011KT 10SM CLR 20/13 A2985 RMK AO2 SLP096 T02000128 $

Saat: 02:35 (07:35 UTC)

Tahmin

Rapor saat 05:20 UTC de 2 saat ve 15 dakika önce yapıldı.
Ayın 27'si saat 06 UTC'den ayın 28'si saat 06 UTC'ye kadar geçerli Tahmin
Rüzgar kuzeydan 4 kt
Görüş mesafesi: 10 km
Açık gökyüzü
Ayın 27'si saat 1800 UTC'den
Rüzgar değişken yönden 4 kt
Görüş mesafesi: 10 km
5000 ft yükseklikte az bulutlu

TAF: KICT 270520Z 2706/2806 35004KT P6SM SKC FM271800 VRB04KT P6SM FEW050

4.000'den fazla havaalanı için hava durumu gözlemleri ve tahminleri (METAR ve TAF raporları).

Kullanılabilir istasyonlar harita üzerinde sarı ve kırmızı noktalarla gösterilir.

İstasyonun adını görmek için fareyi noktanın üzerinde gezdirin.

Sonrasında hava gözlem ve tahminlerini görmek için tıklayın.

Haritayı değiştirmek için: yaklaştırmak için siyah artı işaretli yeşil düğmeye ve uzaklaştırmak için de eksi işaretli düğmeye hızla tıklayın; bitişik haritalar için yeşil okları kullanın.


METAR-TAF: